Strasburg, North Dakota
Current Conditions -  °F | °C
As of 1:15 AM on Sunday 26 Oct 2014 (Local Time) from K7L2 Reporting Station
Clear Clear  
Wind Chill: 38°   Ceiling: Unl
Heat Index: 45°   Visibility: 10mi
Dew Point: 32°   Wind: 13mph
Humidity: 61%   Direction: 140°SE
Pressure: 29.89"   Gusts: 18mph
Location:  46.13°N, 100.16°W
Report Text: K7L2 260615Z AUTO 14011G16KT 10SM CLR 07/00 A2989 RMK AO2 PWINO PNO
Loading
Personal Weather Stations






























Interactive Weather Map
Tropical Storm Tracking
New forecast layout! Learn more

10-Day Weather Forecast

Advertisements
Track Severe Weather on mobile